sensor_id;sensor_type;location;lat;lon;timestamp;pressure;altitude;pressure_sealevel;temperature;humidity
54329;BME280;40710;51.120;13.136;2022-08-19T00:01:11;98688.56;;;25.03;66.61
54329;BME280;40710;51.120;13.136;2022-08-19T00:03:36;98681.06;;;25.35;65.29
54329;BME280;40710;51.120;13.136;2022-08-19T00:06:00;98710.94;;;25.04;66.09
54329;BME280;40710;51.120;13.136;2022-08-19T00:08:24;98714.28;;;24.91;67.17
54329;BME280;40710;51.120;13.136;2022-08-19T00:10:49;98708.19;;;25.19;66.02
54329;BME280;40710;51.120;13.136;2022-08-19T00:13:14;98723.41;;;25.12;66.01
54329;BME280;40710;51.120;13.136;2022-08-19T00:15:39;98730.94;;;25.01;66.88
54329;BME280;40710;51.120;13.136;2022-08-19T00:18:04;98721.88;;;25.02;66.90
54329;BME280;40710;51.120;13.136;2022-08-19T00:20:28;98715.97;;;25.14;66.26
54329;BME280;40710;51.120;13.136;2022-08-19T00:22:52;98716.50;;;25.02;66.26
54329;BME280;40710;51.120;13.136;2022-08-19T00:25:18;98704.47;;;24.98;66.82
54329;BME280;40710;51.120;13.136;2022-08-19T00:27:42;98707.34;;;24.97;66.63
54329;BME280;40710;51.120;13.136;2022-08-19T00:30:07;98704.84;;;25.17;66.22
54329;BME280;40710;51.120;13.136;2022-08-19T00:32:34;98705.38;;;25.05;66.41
54329;BME280;40710;51.120;13.136;2022-08-19T00:34:58;98705.63;;;25.10;66.35
54329;BME280;40710;51.120;13.136;2022-08-19T00:37:24;98706.78;;;25.23;66.58
54329;BME280;40710;51.120;13.136;2022-08-19T00:39:50;98706.78;;;25.23;65.97
54329;BME280;40710;51.120;13.136;2022-08-19T00:42:15;98699.53;;;25.23;66.40
54329;BME280;40710;51.120;13.136;2022-08-19T00:44:39;98693.59;;;25.28;65.87
54329;BME280;40710;51.120;13.136;2022-08-19T00:47:04;98683.06;;;25.26;65.79
54329;BME280;40710;51.120;13.136;2022-08-19T00:49:33;98685.78;;;25.12;65.83
54329;BME280;40710;51.120;13.136;2022-08-19T00:52:08;98702.16;;;24.95;67.18
54329;BME280;40710;51.120;13.136;2022-08-19T00:54:33;98711.47;;;25.14;66.72
54329;BME280;40710;51.120;13.136;2022-08-19T00:56:58;98722.13;;;25.07;66.62
54329;BME280;40710;51.120;13.136;2022-08-19T00:59:25;98723.34;;;25.05;66.59
54329;BME280;40710;51.120;13.136;2022-08-19T01:01:49;98729.34;;;25.07;66.59
54329;BME280;40710;51.120;13.136;2022-08-19T01:04:14;98724.69;;;24.94;66.41
54329;BME280;40710;51.120;13.136;2022-08-19T01:06:39;98712.03;;;25.09;66.31
54329;BME280;40710;51.120;13.136;2022-08-19T01:09:05;98710.03;;;24.97;66.79
54329;BME280;40710;51.120;13.136;2022-08-19T01:11:33;98711.31;;;25.01;66.82
54329;BME280;40710;51.120;13.136;2022-08-19T01:13:59;98707.28;;;24.90;66.92
54329;BME280;40710;51.120;13.136;2022-08-19T01:16:25;98706.75;;;25.01;67.04
54329;BME280;40710;51.120;13.136;2022-08-19T01:18:51;98703.81;;;24.96;66.98
54329;BME280;40710;51.120;13.136;2022-08-19T01:21:28;98696.19;;;25.00;66.77
54329;BME280;40710;51.120;13.136;2022-08-19T01:23:55;98701.91;;;25.12;66.86
54329;BME280;40710;51.120;13.136;2022-08-19T01:26:22;98700.91;;;25.13;66.69
54329;BME280;40710;51.120;13.136;2022-08-19T01:28:49;98682.97;;;25.20;66.05
54329;BME280;40710;51.120;13.136;2022-08-19T01:31:19;98681.47;;;25.17;65.72
54329;BME280;40710;51.120;13.136;2022-08-19T01:33:45;98685.13;;;25.09;66.20
54329;BME280;40710;51.120;13.136;2022-08-19T01:36:24;98696.28;;;25.06;66.54
54329;BME280;40710;51.120;13.136;2022-08-19T01:38:50;98704.41;;;24.91;67.04
54329;BME280;40710;51.120;13.136;2022-08-19T01:41:17;98700.25;;;25.10;66.55
54329;BME280;40710;51.120;13.136;2022-08-19T01:43:42;98692.31;;;25.02;66.80
54329;BME280;40710;51.120;13.136;2022-08-19T01:46:06;98706.31;;;24.98;67.31
54329;BME280;40710;51.120;13.136;2022-08-19T01:48:37;98705.63;;;25.10;66.77
54329;BME280;40710;51.120;13.136;2022-08-19T01:51:02;98698.28;;;25.19;66.32
54329;BME280;40710;51.120;13.136;2022-08-19T01:53:27;98699.28;;;25.18;66.04
54329;BME280;40710;51.120;13.136;2022-08-19T01:55:51;98705.41;;;25.27;66.35
54329;BME280;40710;51.120;13.136;2022-08-19T01:58:19;98707.34;;;25.18;66.64
54329;BME280;40710;51.120;13.136;2022-08-19T02:00:45;98709.59;;;25.15;66.80
54329;BME280;40710;51.120;13.136;2022-08-19T02:03:09;98723.97;;;25.07;66.72
54329;BME280;40710;51.120;13.136;2022-08-19T02:05:35;98722.06;;;25.22;66.21
54329;BME280;40710;51.120;13.136;2022-08-19T02:07:59;98717.41;;;25.09;67.20
54329;BME280;40710;51.120;13.136;2022-08-19T02:10:24;98702.81;;;25.19;66.69
54329;BME280;40710;51.120;13.136;2022-08-19T02:12:49;98695.00;;;25.24;66.91
54329;BME280;40710;51.120;13.136;2022-08-19T02:15:14;98687.91;;;25.16;65.88
54329;BME280;40710;51.120;13.136;2022-08-19T02:17:39;98704.66;;;25.18;66.94
54329;BME280;40710;51.120;13.136;2022-08-19T02:20:05;98692.50;;;25.22;66.13
54329;BME280;40710;51.120;13.136;2022-08-19T02:22:30;98690.59;;;25.16;66.33
54329;BME280;40710;51.120;13.136;2022-08-19T02:24:55;98678.34;;;25.14;66.46
54329;BME280;40710;51.120;13.136;2022-08-19T02:27:19;98668.19;;;25.31;65.84
54329;BME280;40710;51.120;13.136;2022-08-19T02:29:46;98669.09;;;25.38;66.33
54329;BME280;40710;51.120;13.136;2022-08-19T02:32:10;98664.25;;;25.26;66.09
54329;BME280;40710;51.120;13.136;2022-08-19T02:34:35;98670.31;;;25.35;65.45
54329;BME280;40710;51.120;13.136;2022-08-19T02:36:59;98665.69;;;25.29;65.22
54329;BME280;40710;51.120;13.136;2022-08-19T02:39:24;98655.50;;;25.46;65.48
54329;BME280;40710;51.120;13.136;2022-08-19T02:41:48;98648.88;;;25.48;65.73
54329;BME280;40710;51.120;13.136;2022-08-19T02:44:13;98653.13;;;25.36;65.98
54329;BME280;40710;51.120;13.136;2022-08-19T02:46:38;98655.19;;;25.34;65.87
54329;BME280;40710;51.120;13.136;2022-08-19T02:49:05;98649.94;;;25.47;65.63
54329;BME280;40710;51.120;13.136;2022-08-19T02:51:36;98660.44;;;25.42;65.38
54329;BME280;40710;51.120;13.136;2022-08-19T02:54:01;98667.66;;;25.42;65.32
54329;BME280;40710;51.120;13.136;2022-08-19T02:56:26;98678.63;;;25.40;65.86
54329;BME280;40710;51.120;13.136;2022-08-19T02:58:51;98687.34;;;25.42;65.62
54329;BME280;40710;51.120;13.136;2022-08-19T03:01:31;98670.19;;;26.48;62.45
54329;BME280;40710;51.120;13.136;2022-08-19T03:03:57;98670.88;;;26.15;62.41
54329;BME280;40710;51.120;13.136;2022-08-19T03:06:22;98679.84;;;25.38;64.50
54329;BME280;40710;51.120;13.136;2022-08-19T03:08:48;98685.41;;;25.15;65.08
54329;BME280;40710;51.120;13.136;2022-08-19T03:11:26;98685.34;;;25.29;65.14
54329;BME280;40710;51.120;13.136;2022-08-19T03:13:51;98693.09;;;25.18;65.45
54329;BME280;40710;51.120;13.136;2022-08-19T03:16:17;98712.84;;;25.25;66.10
54329;BME280;40710;51.120;13.136;2022-08-19T03:18:42;98732.25;;;25.05;65.68
54329;BME280;40710;51.120;13.136;2022-08-19T03:21:06;98739.91;;;25.08;65.70
54329;BME280;40710;51.120;13.136;2022-08-19T03:23:31;98727.34;;;25.09;65.97
54329;BME280;40710;51.120;13.136;2022-08-19T03:25:55;98726.75;;;25.14;65.61
54329;BME280;40710;51.120;13.136;2022-08-19T03:28:20;98738.91;;;25.09;65.48
54329;BME280;40710;51.120;13.136;2022-08-19T03:30:57;98745.19;;;25.17;65.39
54329;BME280;40710;51.120;13.136;2022-08-19T03:33:22;98734.28;;;25.03;65.70
54329;BME280;40710;51.120;13.136;2022-08-19T03:35:47;98714.25;;;25.06;65.00
54329;BME280;40710;51.120;13.136;2022-08-19T03:38:11;98702.94;;;25.10;65.31
54329;BME280;40710;51.120;13.136;2022-08-19T03:40:36;98708.09;;;25.27;65.41
54329;BME280;40710;51.120;13.136;2022-08-19T03:43:01;98717.59;;;25.08;65.54
54329;BME280;40710;51.120;13.136;2022-08-19T03:45:25;98715.22;;;24.98;65.79
54329;BME280;40710;51.120;13.136;2022-08-19T03:47:49;98715.09;;;25.06;65.91
54329;BME280;40710;51.120;13.136;2022-08-19T03:50:14;98720.84;;;25.03;66.12
54329;BME280;40710;51.120;13.136;2022-08-19T03:52:39;98708.06;;;25.05;65.54
54329;BME280;40710;51.120;13.136;2022-08-19T03:55:04;98705.13;;;25.00;65.24
54329;BME280;40710;51.120;13.136;2022-08-19T03:57:28;98699.84;;;24.92;65.86
54329;BME280;40710;51.120;13.136;2022-08-19T03:59:53;98705.16;;;24.85;66.27
54329;BME280;40710;51.120;13.136;2022-08-19T04:02:17;98698.84;;;25.15;65.37
54329;BME280;40710;51.120;13.136;2022-08-19T04:04:43;98698.41;;;25.11;65.18
54329;BME280;40710;51.120;13.136;2022-08-19T04:07:08;98685.09;;;25.74;63.23
54329;BME280;40710;51.120;13.136;2022-08-19T04:09:34;98700.38;;;25.02;64.97
54329;BME280;40710;51.120;13.136;2022-08-19T04:12:00;98713.56;;;24.82;65.65
54329;BME280;40710;51.120;13.136;2022-08-19T04:14:27;98722.41;;;24.61;66.98
54329;BME280;40710;51.120;13.136;2022-08-19T04:16:53;98709.84;;;25.63;63.59
54329;BME280;40710;51.120;13.136;2022-08-19T04:19:19;98704.78;;;25.25;63.99
54329;BME280;40710;51.120;13.136;2022-08-19T04:21:45;98706.41;;;25.26;64.66
54329;BME280;40710;51.120;13.136;2022-08-19T04:24:11;98710.75;;;25.05;64.92
54329;BME280;40710;51.120;13.136;2022-08-19T04:26:36;98707.47;;;25.10;65.11
54329;BME280;40710;51.120;13.136;2022-08-19T04:29:05;98699.19;;;25.76;63.48
54329;BME280;40710;51.120;13.136;2022-08-19T04:31:31;98695.97;;;25.38;63.77
54329;BME280;40710;51.120;13.136;2022-08-19T04:34:00;98690.53;;;25.31;64.23
54329;BME280;40710;51.120;13.136;2022-08-19T04:36:31;98681.53;;;25.95;62.28
54329;BME280;40710;51.120;13.136;2022-08-19T04:38:59;98683.50;;;25.30;64.05
54329;BME280;40710;51.120;13.136;2022-08-19T04:41:24;98697.78;;;25.31;64.29
54329;BME280;40710;51.120;13.136;2022-08-19T04:44:08;98700.84;;;25.27;64.26
54329;BME280;40710;51.120;13.136;2022-08-19T04:46:33;98706.78;;;25.23;64.26
54329;BME280;40710;51.120;13.136;2022-08-19T04:48:58;98712.44;;;25.28;64.19
54329;BME280;40710;51.120;13.136;2022-08-19T04:51:23;98718.94;;;25.19;65.08
54329;BME280;40710;51.120;13.136;2022-08-19T04:53:47;98727.91;;;25.04;65.63
54329;BME280;40710;51.120;13.136;2022-08-19T04:56:14;98720.91;;;25.25;64.81
54329;BME280;40710;51.120;13.136;2022-08-19T04:58:41;98719.78;;;25.19;65.48
54329;BME280;40710;51.120;13.136;2022-08-19T05:01:06;98727.72;;;24.91;66.53
54329;BME280;40710;51.120;13.136;2022-08-19T05:03:31;98715.28;;;25.05;65.23
54329;BME280;40710;51.120;13.136;2022-08-19T05:05:57;98724.75;;;25.01;66.23
54329;BME280;40710;51.120;13.136;2022-08-19T05:08:22;98717.47;;;25.16;66.18
54329;BME280;40710;51.120;13.136;2022-08-19T05:10:48;98719.84;;;25.26;66.23
54329;BME280;40710;51.120;13.136;2022-08-19T05:13:14;98737.19;;;25.02;67.04
54329;BME280;40710;51.120;13.136;2022-08-19T05:15:40;98723.75;;;25.23;66.08
54329;BME280;40710;51.120;13.136;2022-08-19T05:18:05;98737.66;;;24.90;67.16
54329;BME280;40710;51.120;13.136;2022-08-19T05:20:48;98727.34;;;24.94;66.59
54329;BME280;40710;51.120;13.136;2022-08-19T05:23:31;98734.25;;;24.82;66.93
54329;BME280;40710;51.120;13.136;2022-08-19T05:25:55;98716.28;;;25.40;65.08
54329;BME280;40710;51.120;13.136;2022-08-19T05:28:20;98714.59;;;25.61;64.39
54329;BME280;40710;51.120;13.136;2022-08-19T05:30:45;98721.31;;;25.50;64.92
54329;BME280;40710;51.120;13.136;2022-08-19T05:33:09;98739.41;;;24.98;66.51
54329;BME280;40710;51.120;13.136;2022-08-19T05:35:36;98740.59;;;25.10;66.37
54329;BME280;40710;51.120;13.136;2022-08-19T05:38:01;98733.69;;;25.44;65.56
54329;BME280;40710;51.120;13.136;2022-08-19T05:40:25;98740.50;;;25.40;65.64
54329;BME280;40710;51.120;13.136;2022-08-19T05:42:49;98736.28;;;25.53;65.18
54329;BME280;40710;51.120;13.136;2022-08-19T05:45:14;98744.56;;;25.58;65.10
54329;BME280;40710;51.120;13.136;2022-08-19T05:47:38;98757.13;;;25.29;65.60
54329;BME280;40710;51.120;13.136;2022-08-19T05:50:03;98770.28;;;25.39;65.58
54329;BME280;40710;51.120;13.136;2022-08-19T05:52:28;98773.28;;;25.29;65.75
54329;BME280;40710;51.120;13.136;2022-08-19T05:54:53;98783.41;;;25.48;65.34
54329;BME280;40710;51.120;13.136;2022-08-19T05:57:19;98793.63;;;25.38;65.41
54329;BME280;40710;51.120;13.136;2022-08-19T05:59:43;98806.06;;;25.39;65.65
54329;BME280;40710;51.120;13.136;2022-08-19T06:02:10;98806.16;;;25.46;64.94
54329;BME280;40710;51.120;13.136;2022-08-19T06:04:34;98822.22;;;25.39;65.50
54329;BME280;40710;51.120;13.136;2022-08-19T06:06:59;98828.09;;;25.13;66.40
54329;BME280;40710;51.120;13.136;2022-08-19T06:09:24;98832.97;;;24.88;67.25
54329;BME280;40710;51.120;13.136;2022-08-19T06:11:51;98830.44;;;24.71;67.40
54329;BME280;40710;51.120;13.136;2022-08-19T06:14:22;98842.78;;;24.81;66.79
54329;BME280;40710;51.120;13.136;2022-08-19T06:16:46;98852.59;;;24.59;67.51
54329;BME280;40710;51.120;13.136;2022-08-19T06:19:15;98853.59;;;24.87;66.84
54329;BME280;40710;51.120;13.136;2022-08-19T06:21:41;98869.66;;;24.96;66.87
54329;BME280;40710;51.120;13.136;2022-08-19T06:24:08;98863.88;;;24.84;66.57
54329;BME280;40710;51.120;13.136;2022-08-19T06:26:37;98872.88;;;24.91;66.36
54329;BME280;40710;51.120;13.136;2022-08-19T06:29:05;98886.69;;;24.73;67.14
54329;BME280;40710;51.120;13.136;2022-08-19T06:31:30;98896.31;;;24.82;66.96
54329;BME280;40710;51.120;13.136;2022-08-19T06:33:57;98902.28;;;24.78;67.09
54329;BME280;40710;51.120;13.136;2022-08-19T06:36:23;98902.16;;;24.71;67.38
54329;BME280;40710;51.120;13.136;2022-08-19T06:38:54;98909.28;;;24.79;67.25
54329;BME280;40710;51.120;13.136;2022-08-19T06:41:18;98908.75;;;24.68;67.63
54329;BME280;40710;51.120;13.136;2022-08-19T06:43:43;98903.09;;;24.63;67.28
54329;BME280;40710;51.120;13.136;2022-08-19T06:46:13;98907.00;;;24.52;68.03
54329;BME280;40710;51.120;13.136;2022-08-19T06:48:38;98902.81;;;24.58;67.44
54329;BME280;40710;51.120;13.136;2022-08-19T06:51:03;98900.69;;;24.68;67.36
54329;BME280;40710;51.120;13.136;2022-08-19T06:53:29;98893.56;;;24.90;66.49
54329;BME280;40710;51.120;13.136;2022-08-19T06:55:54;98902.06;;;24.64;67.29
54329;BME280;40710;51.120;13.136;2022-08-19T06:58:23;98913.13;;;24.84;66.35
54329;BME280;40710;51.120;13.136;2022-08-19T07:00:48;98908.50;;;24.93;66.64
54329;BME280;40710;51.120;13.136;2022-08-19T07:03:14;98905.50;;;25.18;65.07
54329;BME280;40710;51.120;13.136;2022-08-19T07:05:42;98899.69;;;25.14;65.45
54329;BME280;40710;51.120;13.136;2022-08-19T07:08:06;98898.53;;;25.23;65.22
54329;BME280;40710;51.120;13.136;2022-08-19T07:10:31;98892.91;;;25.18;65.32
54329;BME280;40710;51.120;13.136;2022-08-19T07:12:57;98893.25;;;25.15;65.80
54329;BME280;40710;51.120;13.136;2022-08-19T07:15:21;98904.13;;;24.92;66.10
54329;BME280;40710;51.120;13.136;2022-08-19T07:17:45;98894.28;;;25.29;65.35
54329;BME280;40710;51.120;13.136;2022-08-19T07:20:11;98904.88;;;25.01;66.22
54329;BME280;40710;51.120;13.136;2022-08-19T07:22:40;98905.34;;;24.89;65.85
54329;BME280;40710;51.120;13.136;2022-08-19T07:25:06;98905.22;;;24.98;66.36
54329;BME280;40710;51.120;13.136;2022-08-19T07:27:31;98899.69;;;25.14;65.87
54329;BME280;40710;51.120;13.136;2022-08-19T07:29:55;98899.75;;;24.91;66.30
54329;BME280;40710;51.120;13.136;2022-08-19T07:32:19;98914.38;;;24.73;67.01
54329;BME280;40710;51.120;13.136;2022-08-19T07:34:44;98902.09;;;25.09;66.09
54329;BME280;40710;51.120;13.136;2022-08-19T07:37:09;98901.91;;;25.10;65.70
54329;BME280;40710;51.120;13.136;2022-08-19T07:39:35;98910.13;;;25.24;65.24
54329;BME280;40710;51.120;13.136;2022-08-19T07:42:02;98907.34;;;25.17;65.35
54329;BME280;40710;51.120;13.136;2022-08-19T07:44:28;98908.66;;;25.36;65.08
54329;BME280;40710;51.120;13.136;2022-08-19T07:46:55;98907.75;;;25.29;65.59
54329;BME280;40710;51.120;13.136;2022-08-19T07:49:20;98906.97;;;25.20;65.57
54329;BME280;40710;51.120;13.136;2022-08-19T07:51:51;98917.56;;;25.22;66.48
54329;BME280;40710;51.120;13.136;2022-08-19T07:54:15;98917.78;;;25.35;65.75
54329;BME280;40710;51.120;13.136;2022-08-19T07:56:40;98922.28;;;25.35;65.97
54329;BME280;40710;51.120;13.136;2022-08-19T07:59:04;98929.13;;;25.52;65.90
54329;BME280;40710;51.120;13.136;2022-08-19T08:01:29;98921.91;;;25.38;66.15
54329;BME280;40710;51.120;13.136;2022-08-19T08:03:55;98935.16;;;25.24;66.68
54329;BME280;40710;51.120;13.136;2022-08-19T08:06:38;98936.09;;;25.17;67.03
54329;BME280;40710;51.120;13.136;2022-08-19T08:09:31;98956.31;;;24.98;67.27
54329;BME280;40710;51.120;13.136;2022-08-19T08:12:05;98955.19;;;24.92;67.95
54329;BME280;40710;51.120;13.136;2022-08-19T08:14:38;98940.03;;;25.29;66.68
54329;BME280;40710;51.120;13.136;2022-08-19T08:17:05;98944.81;;;25.19;67.22
54329;BME280;40710;51.120;13.136;2022-08-19T08:19:29;98950.66;;;25.07;67.58
54329;BME280;40710;51.120;13.136;2022-08-19T08:21:57;98961.03;;;24.96;68.26
54329;BME280;40710;51.120;13.136;2022-08-19T08:24:23;98965.31;;;24.90;68.33
54329;BME280;40710;51.120;13.136;2022-08-19T08:26:47;98954.19;;;25.08;67.78
54329;BME280;40710;51.120;13.136;2022-08-19T08:29:12;98962.91;;;25.10;67.95
54329;BME280;40710;51.120;13.136;2022-08-19T08:31:37;98965.13;;;25.21;67.47
54329;BME280;40710;51.120;13.136;2022-08-19T08:34:01;98972.31;;;24.91;68.58
54329;BME280;40710;51.120;13.136;2022-08-19T08:36:26;98955.09;;;25.15;67.76
54329;BME280;40710;51.120;13.136;2022-08-19T08:38:51;98955.19;;;25.22;67.77
54329;BME280;40710;51.120;13.136;2022-08-19T08:41:35;98954.53;;;25.05;67.84
54329;BME280;40710;51.120;13.136;2022-08-19T08:44:02;98952.13;;;25.10;67.93
54329;BME280;40710;51.120;13.136;2022-08-19T08:46:35;98955.69;;;25.25;67.94
54329;BME280;40710;51.120;13.136;2022-08-19T08:52:12;98964.75;;;25.09;68.10
54329;BME280;40710;51.120;13.136;2022-08-19T08:54:43;98967.44;;;25.09;68.38
54329;BME280;40710;51.120;13.136;2022-08-19T08:57:15;98961.31;;;25.01;68.40
54329;BME280;40710;51.120;13.136;2022-08-19T08:59:43;98960.09;;;25.03;68.90
54329;BME280;40710;51.120;13.136;2022-08-19T09:02:13;98970.03;;;24.88;69.08
54329;BME280;40710;51.120;13.136;2022-08-19T09:04:37;98958.34;;;24.96;68.60
54329;BME280;40710;51.120;13.136;2022-08-19T09:07:26;98968.91;;;24.97;69.19
54329;BME280;40710;51.120;13.136;2022-08-19T09:09:51;98968.63;;;24.92;68.82
54329;BME280;40710;51.120;13.136;2022-08-19T09:15:24;98966.53;;;25.47;66.85
54329;BME280;40710;51.120;13.136;2022-08-19T09:17:51;98970.22;;;25.16;67.77
54329;BME280;40710;51.120;13.136;2022-08-19T09:20:21;98962.81;;;25.33;67.40
54329;BME280;40710;51.120;13.136;2022-08-19T09:22:45;98959.22;;;25.26;67.80
54329;BME280;40710;51.120;13.136;2022-08-19T09:25:14;98962.72;;;25.12;67.71
54329;BME280;40710;51.120;13.136;2022-08-19T09:27:41;98949.81;;;25.22;67.86
54329;BME280;40710;51.120;13.136;2022-08-19T09:30:07;98946.03;;;25.16;67.87
54329;BME280;40710;51.120;13.136;2022-08-19T09:32:33;98949.00;;;25.21;67.44
54329;BME280;40710;51.120;13.136;2022-08-19T09:34:57;98944.72;;;25.42;66.95
54329;BME280;40710;51.120;13.136;2022-08-19T09:37:24;98957.88;;;25.07;68.17
54329;BME280;40710;51.120;13.136;2022-08-19T09:39:49;98953.91;;;25.18;68.06
54329;BME280;40710;51.120;13.136;2022-08-19T09:42:13;98943.63;;;25.36;67.67
54329;BME280;40710;51.120;13.136;2022-08-19T09:44:39;98932.44;;;25.91;65.81
54329;BME280;40710;51.120;13.136;2022-08-19T09:47:04;98928.84;;;26.20;64.40
54329;BME280;40710;51.120;13.136;2022-08-19T09:49:28;98927.59;;;26.22;64.26
54329;BME280;40710;51.120;13.136;2022-08-19T09:51:53;98923.13;;;26.08;64.41
54329;BME280;40710;51.120;13.136;2022-08-19T09:54:20;98939.06;;;25.52;65.96
54329;BME280;40710;51.120;13.136;2022-08-19T09:56:44;98931.56;;;25.83;65.22
54329;BME280;40710;51.120;13.136;2022-08-19T09:59:08;98932.25;;;26.07;64.35
54329;BME280;40710;51.120;13.136;2022-08-19T10:01:34;98928.84;;;25.83;64.50
54329;BME280;40710;51.120;13.136;2022-08-19T10:04:00;98926.53;;;25.95;63.82
54329;BME280;40710;51.120;13.136;2022-08-19T10:06:27;98934.81;;;25.79;64.84
54329;BME280;40710;51.120;13.136;2022-08-19T10:08:53;98943.69;;;25.58;65.61
54329;BME280;40710;51.120;13.136;2022-08-19T10:11:18;98948.22;;;25.72;65.13
54329;BME280;40710;51.120;13.136;2022-08-19T10:13:44;98935.13;;;25.69;64.88
54329;BME280;40710;51.120;13.136;2022-08-19T10:16:12;98926.66;;;26.09;63.37
54329;BME280;40710;51.120;13.136;2022-08-19T10:18:37;98913.03;;;26.38;62.75
54329;BME280;40710;51.120;13.136;2022-08-19T10:21:05;98910.81;;;26.42;62.37
54329;BME280;40710;51.120;13.136;2022-08-19T10:23:32;98905.94;;;26.31;62.69
54329;BME280;40710;51.120;13.136;2022-08-19T10:25:59;98914.78;;;26.46;62.56
54329;BME280;40710;51.120;13.136;2022-08-19T10:28:24;98927.84;;;26.49;62.74
54329;BME280;40710;51.120;13.136;2022-08-19T10:30:48;98927.19;;;26.47;62.16
54329;BME280;40710;51.120;13.136;2022-08-19T10:33:13;98934.81;;;26.37;62.32
54329;BME280;40710;51.120;13.136;2022-08-19T10:35:38;98940.81;;;26.39;62.33
54329;BME280;40710;51.120;13.136;2022-08-19T10:38:02;98948.31;;;26.44;62.32
54329;BME280;40710;51.120;13.136;2022-08-19T10:40:27;98956.50;;;26.07;63.81
54329;BME280;40710;51.120;13.136;2022-08-19T10:42:53;98949.41;;;26.71;61.84
54329;BME280;40710;51.120;13.136;2022-08-19T10:45:17;98942.03;;;26.86;60.78
54329;BME280;40710;51.120;13.136;2022-08-19T10:47:42;98942.09;;;26.93;60.93
54329;BME280;40710;51.120;13.136;2022-08-19T10:50:06;98945.91;;;27.12;60.21
54329;BME280;40710;51.120;13.136;2022-08-19T10:52:50;98939.19;;;26.94;60.68
54329;BME280;40710;51.120;13.136;2022-08-19T10:55:14;98941.34;;;26.49;61.89
54329;BME280;40710;51.120;13.136;2022-08-19T10:57:57;98935.22;;;27.25;60.13
54329;BME280;40710;51.120;13.136;2022-08-19T11:00:23;98948.88;;;26.60;61.54
54329;BME280;40710;51.120;13.136;2022-08-19T11:02:48;98946.34;;;27.15;59.78
54329;BME280;40710;51.120;13.136;2022-08-19T11:05:13;98950.72;;;26.82;60.44
54329;BME280;40710;51.120;13.136;2022-08-19T11:07:39;98962.00;;;26.42;61.64
54329;BME280;40710;51.120;13.136;2022-08-19T11:10:04;98977.91;;;26.37;62.11
54329;BME280;40710;51.120;13.136;2022-08-19T11:12:28;98980.31;;;26.53;61.38
54329;BME280;40710;51.120;13.136;2022-08-19T11:14:52;98987.97;;;26.28;61.77
54329;BME280;40710;51.120;13.136;2022-08-19T11:17:17;98991.88;;;26.47;61.08
54329;BME280;40710;51.120;13.136;2022-08-19T11:19:41;98995.72;;;26.16;62.07
54329;BME280;40710;51.120;13.136;2022-08-19T11:22:08;98989.88;;;26.34;61.33
54329;BME280;40710;51.120;13.136;2022-08-19T11:24:33;98997.53;;;26.09;61.89
54329;BME280;40710;51.120;13.136;2022-08-19T11:27:04;98989.13;;;26.19;61.27
54329;BME280;40710;51.120;13.136;2022-08-19T11:29:30;98985.91;;;26.09;62.21
54329;BME280;40710;51.120;13.136;2022-08-19T11:31:55;98973.53;;;26.36;61.40
54329;BME280;40710;51.120;13.136;2022-08-19T11:34:23;98968.16;;;26.36;61.44
54329;BME280;40710;51.120;13.136;2022-08-19T11:36:49;98963.84;;;26.20;61.91
54329;BME280;40710;51.120;13.136;2022-08-19T11:39:17;98971.41;;;26.10;62.14
54329;BME280;40710;51.120;13.136;2022-08-19T11:41:42;98979.56;;;25.95;63.07
54329;BME280;40710;51.120;13.136;2022-08-19T11:44:07;98987.63;;;25.95;62.99
54329;BME280;40710;51.120;13.136;2022-08-19T11:46:31;98994.94;;;26.01;62.74
54329;BME280;40710;51.120;13.136;2022-08-19T11:48:57;98991.16;;;25.95;62.70
54329;BME280;40710;51.120;13.136;2022-08-19T11:51:24;98983.78;;;26.04;62.28
54329;BME280;40710;51.120;13.136;2022-08-19T11:53:49;98991.50;;;26.07;61.62
54329;BME280;40710;51.120;13.136;2022-08-19T11:56:14;98982.78;;;26.27;60.91
54329;BME280;40710;51.120;13.136;2022-08-19T11:58:39;98990.03;;;25.90;62.02
54329;BME280;40710;51.120;13.136;2022-08-19T12:01:07;98989.63;;;25.93;62.03
54329;BME280;40710;51.120;13.136;2022-08-19T12:03:32;98991.50;;;26.07;61.62
54329;BME280;40710;51.120;13.136;2022-08-19T12:05:56;98993.28;;;26.21;61.32
54329;BME280;40710;51.120;13.136;2022-08-19T12:08:21;98983.03;;;26.32;60.73
54329;BME280;40710;51.120;13.136;2022-08-19T12:10:45;98973.91;;;26.33;61.11
54329;BME280;40710;51.120;13.136;2022-08-19T12:13:09;98974.94;;;26.53;60.56
54329;BME280;40710;51.120;13.136;2022-08-19T12:15:38;98972.28;;;26.32;60.42
54329;BME280;40710;51.120;13.136;2022-08-19T12:18:04;98980.59;;;26.37;61.18
54329;BME280;40710;51.120;13.136;2022-08-19T12:20:29;98972.84;;;26.27;60.83
54329;BME280;40710;51.120;13.136;2022-08-19T12:22:53;98969.41;;;26.40;59.96
54329;BME280;40710;51.120;13.136;2022-08-19T12:25:18;98967.97;;;26.37;60.82
54329;BME280;40710;51.120;13.136;2022-08-19T12:27:43;98961.94;;;26.35;60.21
54329;BME280;40710;51.120;13.136;2022-08-19T12:30:10;98968.28;;;26.49;60.10
54329;BME280;40710;51.120;13.136;2022-08-19T12:32:34;98980.16;;;26.33;60.56
54329;BME280;40710;51.120;13.136;2022-08-19T12:34:59;98999.72;;;26.42;60.36
54329;BME280;40710;51.120;13.136;2022-08-19T12:37:23;99012.22;;;26.50;59.90
54329;BME280;40710;51.120;13.136;2022-08-19T12:39:48;99008.84;;;26.63;59.60
54329;BME280;40710;51.120;13.136;2022-08-19T12:42:13;99003.56;;;26.54;59.78
54329;BME280;40710;51.120;13.136;2022-08-19T12:44:40;99007.41;;;26.23;60.34
54329;BME280;40710;51.120;13.136;2022-08-19T12:47:06;99006.66;;;26.30;59.92
54329;BME280;40710;51.120;13.136;2022-08-19T12:49:31;98998.41;;;26.59;59.50
54329;BME280;40710;51.120;13.136;2022-08-19T12:51:57;99010.75;;;26.69;59.03